sensor_id;sensor_type;location;lat;lon;timestamp;P1;durP1;ratioP1;P2;durP2;ratioP2
12334;SDS011;6233;51.560;9.986;2023-03-14T00:02:44;1.30;;;1.20;;
12334;SDS011;6233;51.560;9.986;2023-03-14T00:05:46;3.07;;;1.30;;
12334;SDS011;6233;51.560;9.986;2023-03-14T00:08:48;1.10;;;1.10;;
12334;SDS011;6233;51.560;9.986;2023-03-14T00:11:50;2.00;;;1.23;;
12334;SDS011;6233;51.560;9.986;2023-03-14T00:14:51;1.47;;;1.10;;
12334;SDS011;6233;51.560;9.986;2023-03-14T00:17:53;2.23;;;1.00;;
12334;SDS011;6233;51.560;9.986;2023-03-14T00:20:57;1.30;;;1.20;;
12334;SDS011;6233;51.560;9.986;2023-03-14T00:24:00;1.90;;;1.03;;
12334;SDS011;6233;51.560;9.986;2023-03-14T00:27:02;2.30;;;1.30;;
12334;SDS011;6233;51.560;9.986;2023-03-14T00:30:04;1.50;;;1.10;;
12334;SDS011;6233;51.560;9.986;2023-03-14T00:33:06;2.47;;;1.20;;
12334;SDS011;6233;51.560;9.986;2023-03-14T00:36:09;1.77;;;1.20;;
12334;SDS011;6233;51.560;9.986;2023-03-14T00:39:16;1.87;;;1.10;;
12334;SDS011;6233;51.560;9.986;2023-03-14T00:42:17;1.73;;;1.10;;
12334;SDS011;6233;51.560;9.986;2023-03-14T00:45:19;1.23;;;1.00;;
12334;SDS011;6233;51.560;9.986;2023-03-14T00:48:21;3.10;;;1.30;;
12334;SDS011;6233;51.560;9.986;2023-03-14T00:51:23;1.40;;;1.10;;
12334;SDS011;6233;51.560;9.986;2023-03-14T00:54:24;1.10;;;1.10;;
12334;SDS011;6233;51.560;9.986;2023-03-14T00:57:26;2.90;;;1.10;;
12334;SDS011;6233;51.560;9.986;2023-03-14T01:00:28;2.23;;;1.20;;
12334;SDS011;6233;51.560;9.986;2023-03-14T01:06:46;1.10;;;0.93;;
12334;SDS011;6233;51.560;9.986;2023-03-14T01:09:50;2.10;;;1.20;;
12334;SDS011;6233;51.560;9.986;2023-03-14T01:12:53;1.60;;;1.10;;
12334;SDS011;6233;51.560;9.986;2023-03-14T01:15:55;1.03;;;0.97;;
12334;SDS011;6233;51.560;9.986;2023-03-14T01:19:02;1.97;;;1.20;;
12334;SDS011;6233;51.560;9.986;2023-03-14T01:22:03;1.10;;;1.00;;
12334;SDS011;6233;51.560;9.986;2023-03-14T01:25:06;1.07;;;0.90;;
12334;SDS011;6233;51.560;9.986;2023-03-14T01:28:09;1.97;;;1.17;;
12334;SDS011;6233;51.560;9.986;2023-03-14T01:31:11;1.20;;;1.10;;
12334;SDS011;6233;51.560;9.986;2023-03-14T01:34:13;2.10;;;1.33;;
12334;SDS011;6233;51.560;9.986;2023-03-14T01:37:15;2.07;;;1.10;;
12334;SDS011;6233;51.560;9.986;2023-03-14T01:40:17;4.10;;;1.20;;
12334;SDS011;6233;51.560;9.986;2023-03-14T01:43:19;1.23;;;1.03;;
12334;SDS011;6233;51.560;9.986;2023-03-14T01:46:24;1.33;;;1.20;;
12334;SDS011;6233;51.560;9.986;2023-03-14T01:49:33;3.30;;;1.77;;
12334;SDS011;6233;51.560;9.986;2023-03-14T01:52:38;1.80;;;1.30;;
12334;SDS011;6233;51.560;9.986;2023-03-14T01:55:44;1.80;;;1.13;;
12334;SDS011;6233;51.560;9.986;2023-03-14T01:58:47;2.37;;;1.50;;
12334;SDS011;6233;51.560;9.986;2023-03-14T02:01:51;1.60;;;1.33;;
12334;SDS011;6233;51.560;9.986;2023-03-14T02:04:56;3.33;;;1.83;;
12334;SDS011;6233;51.560;9.986;2023-03-14T02:08:00;3.00;;;1.80;;
12334;SDS011;6233;51.560;9.986;2023-03-14T02:11:03;2.20;;;1.67;;
12334;SDS011;6233;51.560;9.986;2023-03-14T02:14:05;2.70;;;1.90;;
12334;SDS011;6233;51.560;9.986;2023-03-14T02:17:10;3.53;;;1.93;;
12334;SDS011;6233;51.560;9.986;2023-03-14T02:24:40;3.87;;;2.00;;
12334;SDS011;6233;51.560;9.986;2023-03-14T02:28:04;2.23;;;1.83;;
12334;SDS011;6233;51.560;9.986;2023-03-14T02:31:06;2.00;;;1.90;;
12334;SDS011;6233;51.560;9.986;2023-03-14T02:34:09;2.77;;;2.10;;
12334;SDS011;6233;51.560;9.986;2023-03-14T02:37:11;2.53;;;1.97;;
12334;SDS011;6233;51.560;9.986;2023-03-14T02:40:15;3.33;;;2.00;;
12334;SDS011;6233;51.560;9.986;2023-03-14T02:43:16;3.07;;;2.20;;
12334;SDS011;6233;51.560;9.986;2023-03-14T02:46:19;2.27;;;2.03;;
12334;SDS011;6233;51.560;9.986;2023-03-14T02:49:22;2.57;;;1.73;;
12334;SDS011;6233;51.560;9.986;2023-03-14T02:52:24;2.77;;;2.10;;
12334;SDS011;6233;51.560;9.986;2023-03-14T02:55:26;2.57;;;2.27;;
12334;SDS011;6233;51.560;9.986;2023-03-14T02:58:28;2.83;;;2.20;;
12334;SDS011;6233;51.560;9.986;2023-03-14T03:01:30;4.23;;;2.30;;
12334;SDS011;6233;51.560;9.986;2023-03-14T03:04:32;3.00;;;2.23;;
12334;SDS011;6233;51.560;9.986;2023-03-14T03:07:33;5.73;;;2.53;;
12334;SDS011;6233;51.560;9.986;2023-03-14T03:10:35;3.20;;;2.23;;
12334;SDS011;6233;51.560;9.986;2023-03-14T03:13:37;4.27;;;2.20;;
12334;SDS011;6233;51.560;9.986;2023-03-14T03:16:38;4.40;;;2.33;;
12334;SDS011;6233;51.560;9.986;2023-03-14T03:19:40;3.30;;;2.30;;
12334;SDS011;6233;51.560;9.986;2023-03-14T03:22:42;5.33;;;2.07;;
12334;SDS011;6233;51.560;9.986;2023-03-14T03:25:48;3.53;;;2.23;;
12334;SDS011;6233;51.560;9.986;2023-03-14T03:28:51;5.70;;;2.67;;
12334;SDS011;6233;51.560;9.986;2023-03-14T03:31:53;4.67;;;2.30;;
12334;SDS011;6233;51.560;9.986;2023-03-14T03:34:54;3.33;;;2.60;;
12334;SDS011;6233;51.560;9.986;2023-03-14T03:37:56;3.90;;;2.20;;
12334;SDS011;6233;51.560;9.986;2023-03-14T03:40:58;4.87;;;2.70;;
12334;SDS011;6233;51.560;9.986;2023-03-14T03:44:02;4.40;;;2.20;;
12334;SDS011;6233;51.560;9.986;2023-03-14T03:47:04;3.17;;;2.63;;
12334;SDS011;6233;51.560;9.986;2023-03-14T03:50:06;5.33;;;2.57;;
12334;SDS011;6233;51.560;9.986;2023-03-14T03:53:08;2.87;;;2.03;;
12334;SDS011;6233;51.560;9.986;2023-03-14T03:56:11;2.97;;;2.20;;
12334;SDS011;6233;51.560;9.986;2023-03-14T03:59:12;4.93;;;2.10;;
12334;SDS011;6233;51.560;9.986;2023-03-14T04:02:14;5.40;;;2.20;;
12334;SDS011;6233;51.560;9.986;2023-03-14T04:05:16;3.53;;;2.27;;
12334;SDS011;6233;51.560;9.986;2023-03-14T04:08:18;4.30;;;2.60;;
12334;SDS011;6233;51.560;9.986;2023-03-14T04:11:20;3.10;;;1.80;;
12334;SDS011;6233;51.560;9.986;2023-03-14T04:14:21;5.90;;;1.97;;
12334;SDS011;6233;51.560;9.986;2023-03-14T04:17:23;4.43;;;2.07;;
12334;SDS011;6233;51.560;9.986;2023-03-14T04:20:25;3.47;;;1.73;;
12334;SDS011;6233;51.560;9.986;2023-03-14T04:23:27;4.00;;;1.70;;
12334;SDS011;6233;51.560;9.986;2023-03-14T04:26:28;3.90;;;1.70;;
12334;SDS011;6233;51.560;9.986;2023-03-14T04:29:30;5.23;;;2.10;;
12334;SDS011;6233;51.560;9.986;2023-03-14T04:32:32;2.80;;;1.87;;
12334;SDS011;6233;51.560;9.986;2023-03-14T04:35:33;3.03;;;1.90;;
12334;SDS011;6233;51.560;9.986;2023-03-14T04:38:36;2.67;;;2.27;;
12334;SDS011;6233;51.560;9.986;2023-03-14T04:41:37;3.00;;;1.83;;
12334;SDS011;6233;51.560;9.986;2023-03-14T04:44:39;2.43;;;1.87;;
12334;SDS011;6233;51.560;9.986;2023-03-14T04:47:41;6.17;;;2.47;;
12334;SDS011;6233;51.560;9.986;2023-03-14T04:50:43;2.43;;;2.07;;
12334;SDS011;6233;51.560;9.986;2023-03-14T04:53:45;3.13;;;2.07;;
12334;SDS011;6233;51.560;9.986;2023-03-14T04:56:46;5.87;;;1.90;;
12334;SDS011;6233;51.560;9.986;2023-03-14T04:59:48;3.93;;;2.20;;
12334;SDS011;6233;51.560;9.986;2023-03-14T05:02:50;4.47;;;2.03;;
12334;SDS011;6233;51.560;9.986;2023-03-14T05:05:52;3.47;;;2.20;;
12334;SDS011;6233;51.560;9.986;2023-03-14T05:08:54;4.47;;;2.20;;
12334;SDS011;6233;51.560;9.986;2023-03-14T05:11:55;2.77;;;2.10;;
12334;SDS011;6233;51.560;9.986;2023-03-14T05:14:57;4.27;;;2.50;;
12334;SDS011;6233;51.560;9.986;2023-03-14T05:17:59;3.47;;;2.07;;
12334;SDS011;6233;51.560;9.986;2023-03-14T05:21:01;5.27;;;2.20;;
12334;SDS011;6233;51.560;9.986;2023-03-14T05:24:03;3.40;;;1.83;;
12334;SDS011;6233;51.560;9.986;2023-03-14T05:27:05;2.67;;;2.40;;
12334;SDS011;6233;51.560;9.986;2023-03-14T05:30:07;5.73;;;2.43;;
12334;SDS011;6233;51.560;9.986;2023-03-14T05:33:09;3.73;;;2.00;;
12334;SDS011;6233;51.560;9.986;2023-03-14T05:36:11;3.73;;;2.60;;
12334;SDS011;6233;51.560;9.986;2023-03-14T05:39:13;4.17;;;2.10;;
12334;SDS011;6233;51.560;9.986;2023-03-14T05:42:14;5.57;;;2.40;;
12334;SDS011;6233;51.560;9.986;2023-03-14T05:45:16;3.87;;;2.07;;
12334;SDS011;6233;51.560;9.986;2023-03-14T05:48:18;3.83;;;2.40;;
12334;SDS011;6233;51.560;9.986;2023-03-14T05:51:19;5.37;;;2.10;;
12334;SDS011;6233;51.560;9.986;2023-03-14T05:54:21;6.80;;;2.33;;
12334;SDS011;6233;51.560;9.986;2023-03-14T05:57:23;4.73;;;2.37;;
12334;SDS011;6233;51.560;9.986;2023-03-14T06:00:24;7.37;;;2.50;;
12334;SDS011;6233;51.560;9.986;2023-03-14T06:03:26;3.03;;;2.20;;
12334;SDS011;6233;51.560;9.986;2023-03-14T06:06:28;3.97;;;2.33;;
12334;SDS011;6233;51.560;9.986;2023-03-14T06:09:30;4.73;;;2.17;;
12334;SDS011;6233;51.560;9.986;2023-03-14T06:12:31;2.90;;;2.13;;
12334;SDS011;6233;51.560;9.986;2023-03-14T06:15:33;2.93;;;2.23;;
12334;SDS011;6233;51.560;9.986;2023-03-14T06:18:36;4.47;;;2.43;;
12334;SDS011;6233;51.560;9.986;2023-03-14T06:21:38;4.93;;;2.40;;
12334;SDS011;6233;51.560;9.986;2023-03-14T06:24:39;4.13;;;2.07;;
12334;SDS011;6233;51.560;9.986;2023-03-14T06:27:41;5.77;;;1.93;;
12334;SDS011;6233;51.560;9.986;2023-03-14T06:30:43;6.83;;;2.63;;
12334;SDS011;6233;51.560;9.986;2023-03-14T06:33:45;4.70;;;2.40;;
12334;SDS011;6233;51.560;9.986;2023-03-14T06:36:46;3.63;;;2.27;;
12334;SDS011;6233;51.560;9.986;2023-03-14T06:39:48;5.63;;;2.33;;
12334;SDS011;6233;51.560;9.986;2023-03-14T06:42:50;7.80;;;2.47;;
12334;SDS011;6233;51.560;9.986;2023-03-14T06:45:51;4.43;;;1.97;;
12334;SDS011;6233;51.560;9.986;2023-03-14T06:48:53;5.63;;;2.10;;
12334;SDS011;6233;51.560;9.986;2023-03-14T06:52:04;2.93;;;1.80;;
12334;SDS011;6233;51.560;9.986;2023-03-14T06:55:06;1.67;;;1.33;;
12334;SDS011;6233;51.560;9.986;2023-03-14T06:58:08;2.30;;;1.60;;
12334;SDS011;6233;51.560;9.986;2023-03-14T07:01:29;4.77;;;2.37;;
12334;SDS011;6233;51.560;9.986;2023-03-14T07:04:34;3.40;;;1.50;;
12334;SDS011;6233;51.560;9.986;2023-03-14T07:07:35;1.23;;;1.17;;
12334;SDS011;6233;51.560;9.986;2023-03-14T07:10:37;4.90;;;2.07;;
12334;SDS011;6233;51.560;9.986;2023-03-14T07:13:39;2.23;;;1.53;;
12334;SDS011;6233;51.560;9.986;2023-03-14T07:16:41;1.43;;;1.30;;
12334;SDS011;6233;51.560;9.986;2023-03-14T07:19:43;3.10;;;1.77;;
12334;SDS011;6233;51.560;9.986;2023-03-14T07:22:47;2.97;;;1.60;;
12334;SDS011;6233;51.560;9.986;2023-03-14T07:25:49;6.70;;;1.83;;
12334;SDS011;6233;51.560;9.986;2023-03-14T07:28:52;3.83;;;1.80;;
12334;SDS011;6233;51.560;9.986;2023-03-14T07:31:53;4.10;;;1.70;;
12334;SDS011;6233;51.560;9.986;2023-03-14T07:34:55;4.37;;;2.07;;
12334;SDS011;6233;51.560;9.986;2023-03-14T07:37:57;2.43;;;1.50;;
12334;SDS011;6233;51.560;9.986;2023-03-14T07:40:59;2.50;;;1.53;;
12334;SDS011;6233;51.560;9.986;2023-03-14T07:44:02;2.70;;;1.57;;
12334;SDS011;6233;51.560;9.986;2023-03-14T07:51:06;1.93;;;1.43;;
12334;SDS011;6233;51.560;9.986;2023-03-14T07:54:08;2.57;;;1.30;;
12334;SDS011;6233;51.560;9.986;2023-03-14T08:01:26;2.23;;;1.53;;
12334;SDS011;6233;51.560;9.986;2023-03-14T08:04:28;2.67;;;1.23;;
12334;SDS011;6233;51.560;9.986;2023-03-14T08:07:29;2.83;;;1.30;;
12334;SDS011;6233;51.560;9.986;2023-03-14T08:10:31;2.73;;;1.20;;
12334;SDS011;6233;51.560;9.986;2023-03-14T08:13:33;2.87;;;1.50;;
12334;SDS011;6233;51.560;9.986;2023-03-14T08:16:35;4.57;;;2.00;;
12334;SDS011;6233;51.560;9.986;2023-03-14T08:19:37;2.07;;;1.30;;
12334;SDS011;6233;51.560;9.986;2023-03-14T08:26:02;2.63;;;1.77;;
12334;SDS011;6233;51.560;9.986;2023-03-14T08:29:04;1.60;;;1.10;;
12334;SDS011;6233;51.560;9.986;2023-03-14T08:32:06;1.20;;;1.10;;
12334;SDS011;6233;51.560;9.986;2023-03-14T08:35:08;4.37;;;1.60;;
12334;SDS011;6233;51.560;9.986;2023-03-14T08:38:11;2.33;;;1.10;;
12334;SDS011;6233;51.560;9.986;2023-03-14T08:41:13;4.47;;;2.10;;
12334;SDS011;6233;51.560;9.986;2023-03-14T08:44:14;3.93;;;1.60;;
12334;SDS011;6233;51.560;9.986;2023-03-14T08:47:20;1.83;;;1.23;;
12334;SDS011;6233;51.560;9.986;2023-03-14T08:50:23;1.27;;;1.00;;
12334;SDS011;6233;51.560;9.986;2023-03-14T08:53:25;2.73;;;1.53;;
12334;SDS011;6233;51.560;9.986;2023-03-14T08:56:27;1.93;;;1.40;;
12334;SDS011;6233;51.560;9.986;2023-03-14T08:59:28;2.37;;;1.33;;
12334;SDS011;6233;51.560;9.986;2023-03-14T09:02:30;1.73;;;0.90;;
12334;SDS011;6233;51.560;9.986;2023-03-14T09:05:32;1.50;;;1.00;;
12334;SDS011;6233;51.560;9.986;2023-03-14T09:08:35;3.13;;;1.30;;
12334;SDS011;6233;51.560;9.986;2023-03-14T09:11:39;2.40;;;1.13;;
12334;SDS011;6233;51.560;9.986;2023-03-14T09:14:41;1.13;;;1.03;;
12334;SDS011;6233;51.560;9.986;2023-03-14T09:17:43;1.23;;;0.90;;
12334;SDS011;6233;51.560;9.986;2023-03-14T09:20:45;1.00;;;0.80;;
12334;SDS011;6233;51.560;9.986;2023-03-14T09:23:47;1.80;;;1.00;;
12334;SDS011;6233;51.560;9.986;2023-03-14T09:26:49;1.00;;;1.00;;
12334;SDS011;6233;51.560;9.986;2023-03-14T09:29:51;1.57;;;1.13;;
12334;SDS011;6233;51.560;9.986;2023-03-14T09:32:53;1.80;;;0.90;;
12334;SDS011;6233;51.560;9.986;2023-03-14T09:35:57;1.07;;;0.97;;
12334;SDS011;6233;51.560;9.986;2023-03-14T09:39:01;1.33;;;1.00;;
12334;SDS011;6233;51.560;9.986;2023-03-14T09:42:04;1.90;;;0.83;;
12334;SDS011;6233;51.560;9.986;2023-03-14T09:45:13;1.63;;;0.90;;
12334;SDS011;6233;51.560;9.986;2023-03-14T09:48:26;1.23;;;0.83;;
12334;SDS011;6233;51.560;9.986;2023-03-14T09:51:30;1.67;;;1.00;;
12334;SDS011;6233;51.560;9.986;2023-03-14T09:54:37;1.60;;;0.93;;
12334;SDS011;6233;51.560;9.986;2023-03-14T09:57:41;0.73;;;0.73;;
12334;SDS011;6233;51.560;9.986;2023-03-14T10:00:46;1.20;;;0.70;;
12334;SDS011;6233;51.560;9.986;2023-03-14T10:03:48;2.17;;;0.90;;
12334;SDS011;6233;51.560;9.986;2023-03-14T10:06:52;2.30;;;1.00;;
12334;SDS011;6233;51.560;9.986;2023-03-14T10:09:53;1.07;;;0.97;;
12334;SDS011;6233;51.560;9.986;2023-03-14T10:13:15;1.17;;;1.00;;
12334;SDS011;6233;51.560;9.986;2023-03-14T10:16:18;1.07;;;0.90;;
12334;SDS011;6233;51.560;9.986;2023-03-14T10:19:30;2.30;;;1.00;;
12334;SDS011;6233;51.560;9.986;2023-03-14T10:22:32;1.50;;;0.80;;
12334;SDS011;6233;51.560;9.986;2023-03-14T10:29:17;0.77;;;0.77;;
12334;SDS011;6233;51.560;9.986;2023-03-14T10:32:20;2.17;;;0.70;;
12334;SDS011;6233;51.560;9.986;2023-03-14T10:35:23;0.80;;;0.70;;
12334;SDS011;6233;51.560;9.986;2023-03-14T10:38:26;2.23;;;0.70;;
12334;SDS011;6233;51.560;9.986;2023-03-14T10:41:30;1.97;;;0.77;;
12334;SDS011;6233;51.560;9.986;2023-03-14T10:44:34;3.03;;;0.90;;
12334;SDS011;6233;51.560;9.986;2023-03-14T10:47:38;0.83;;;0.77;;
12334;SDS011;6233;51.560;9.986;2023-03-14T10:54:12;0.60;;;0.60;;
12334;SDS011;6233;51.560;9.986;2023-03-14T10:57:21;0.80;;;0.80;;
12334;SDS011;6233;51.560;9.986;2023-03-14T11:00:23;1.30;;;0.80;;
12334;SDS011;6233;51.560;9.986;2023-03-14T11:03:26;1.27;;;0.80;;
12334;SDS011;6233;51.560;9.986;2023-03-14T11:06:33;3.57;;;1.00;;
12334;SDS011;6233;51.560;9.986;2023-03-14T11:09:45;0.70;;;0.70;;
12334;SDS011;6233;51.560;9.986;2023-03-14T11:23:02;1.80;;;1.20;;
12334;SDS011;6233;51.560;9.986;2023-03-14T11:26:36;1.50;;;1.27;;
12334;SDS011;6233;51.560;9.986;2023-03-14T11:33:18;1.40;;;1.07;;
12334;SDS011;6233;51.560;9.986;2023-03-14T11:36:38;1.37;;;1.03;;
12334;SDS011;6233;51.560;9.986;2023-03-14T11:39:44;0.77;;;0.70;;
12334;SDS011;6233;51.560;9.986;2023-03-14T11:43:01;1.47;;;0.80;;
12334;SDS011;6233;51.560;9.986;2023-03-14T11:46:15;1.10;;;1.00;;
12334;SDS011;6233;51.560;9.986;2023-03-14T11:49:40;1.50;;;1.07;;
12334;SDS011;6233;51.560;9.986;2023-03-14T11:53:02;0.70;;;0.70;;
12334;SDS011;6233;51.560;9.986;2023-03-14T11:56:11;1.43;;;0.90;;
12334;SDS011;6233;51.560;9.986;2023-03-14T12:02:34;0.60;;;0.60;;
12334;SDS011;6233;51.560;9.986;2023-03-14T12:05:46;0.50;;;0.50;;
12334;SDS011;6233;51.560;9.986;2023-03-14T12:08:59;1.40;;;0.90;;
12334;SDS011;6233;51.560;9.986;2023-03-14T12:12:04;1.37;;;0.80;;
12334;SDS011;6233;51.560;9.986;2023-03-14T12:15:17;0.60;;;0.60;;
12334;SDS011;6233;51.560;9.986;2023-03-14T12:18:31;1.27;;;1.13;;
12334;SDS011;6233;51.560;9.986;2023-03-14T12:21:44;3.80;;;1.10;;
12334;SDS011;6233;51.560;9.986;2023-03-14T12:25:00;1.37;;;0.93;;
12334;SDS011;6233;51.560;9.986;2023-03-14T12:28:16;1.40;;;1.10;;
12334;SDS011;6233;51.560;9.986;2023-03-14T12:34:33;1.20;;;0.87;;
12334;SDS011;6233;51.560;9.986;2023-03-14T12:37:44;1.23;;;0.77;;
12334;SDS011;6233;51.560;9.986;2023-03-14T12:50:35;1.37;;;0.77;;
12334;SDS011;6233;51.560;9.986;2023-03-14T12:57:25;1.33;;;1.00;;
12334;SDS011;6233;51.560;9.986;2023-03-14T13:00:35;0.80;;;0.80;;
12334;SDS011;6233;51.560;9.986;2023-03-14T13:03:52;1.47;;;0.70;;
12334;SDS011;6233;51.560;9.986;2023-03-14T13:06:58;0.60;;;0.60;;
12334;SDS011;6233;51.560;9.986;2023-03-14T13:10:03;0.70;;;0.70;;
12334;SDS011;6233;51.560;9.986;2023-03-14T13:13:21;0.40;;;0.40;;
12334;SDS011;6233;51.560;9.986;2023-03-14T13:16:27;0.60;;;0.60;;
12334;SDS011;6233;51.560;9.986;2023-03-14T13:19:30;0.60;;;0.60;;
12334;SDS011;6233;51.560;9.986;2023-03-14T13:22:34;0.60;;;0.60;;
12334;SDS011;6233;51.560;9.986;2023-03-14T13:25:38;0.53;;;0.53;;
12334;SDS011;6233;51.560;9.986;2023-03-14T13:28:40;0.70;;;0.60;;
12334;SDS011;6233;51.560;9.986;2023-03-14T13:31:46;0.50;;;0.50;;
12334;SDS011;6233;51.560;9.986;2023-03-14T13:34:49;0.80;;;0.80;;
12334;SDS011;6233;51.560;9.986;2023-03-14T13:37:58;0.60;;;0.60;;
12334;SDS011;6233;51.560;9.986;2023-03-14T13:41:12;0.70;;;0.70;;
12334;SDS011;6233;51.560;9.986;2023-03-14T13:44:20;1.17;;;0.90;;
12334;SDS011;6233;51.560;9.986;2023-03-14T13:47:35;0.73;;;0.73;;
12334;SDS011;6233;51.560;9.986;2023-03-14T13:50:44;0.70;;;0.70;;
12334;SDS011;6233;51.560;9.986;2023-03-14T13:53:57;0.80;;;0.80;;
12334;SDS011;6233;51.560;9.986;2023-03-14T13:57:04;2.40;;;0.70;;
12334;SDS011;6233;51.560;9.986;2023-03-14T14:00:07;1.03;;;0.80;;
12334;SDS011;6233;51.560;9.986;2023-03-14T14:03:18;0.90;;;0.90;;
12334;SDS011;6233;51.560;9.986;2023-03-14T14:09:42;2.70;;;2.50;;
12334;SDS011;6233;51.560;9.986;2023-03-14T14:13:13;1.10;;;1.10;;
12334;SDS011;6233;51.560;9.986;2023-03-14T14:16:20;0.97;;;0.97;;
12334;SDS011;6233;51.560;9.986;2023-03-14T14:19:26;1.10;;;1.00;;
12334;SDS011;6233;51.560;9.986;2023-03-14T14:22:30;2.53;;;1.30;;
12334;SDS011;6233;51.560;9.986;2023-03-14T14:25:33;1.93;;;1.07;;
12334;SDS011;6233;51.560;9.986;2023-03-14T14:32:38;3.30;;;1.47;;
12334;SDS011;6233;51.560;9.986;2023-03-14T14:35:41;2.40;;;1.40;;
12334;SDS011;6233;51.560;9.986;2023-03-14T14:38:48;4.30;;;1.70;;
12334;SDS011;6233;51.560;9.986;2023-03-14T14:41:51;3.67;;;1.77;;
12334;SDS011;6233;51.560;9.986;2023-03-14T14:44:54;2.73;;;1.63;;
12334;SDS011;6233;51.560;9.986;2023-03-14T14:51:04;3.20;;;1.90;;
12334;SDS011;6233;51.560;9.986;2023-03-14T14:54:12;2.43;;;1.67;;
12334;SDS011;6233;51.560;9.986;2023-03-14T14:57:51;2.93;;;2.20;;
12334;SDS011;6233;51.560;9.986;2023-03-14T15:04:23;2.83;;;1.93;;
12334;SDS011;6233;51.560;9.986;2023-03-14T15:07:26;3.20;;;1.80;;
12334;SDS011;6233;51.560;9.986;2023-03-14T15:10:28;6.20;;;2.30;;
12334;SDS011;6233;51.560;9.986;2023-03-14T15:13:30;5.90;;;2.07;;
12334;SDS011;6233;51.560;9.986;2023-03-14T15:16:32;3.13;;;1.90;;
12334;SDS011;6233;51.560;9.986;2023-03-14T15:19:34;6.53;;;2.40;;
12334;SDS011;6233;51.560;9.986;2023-03-14T15:22:36;4.97;;;2.73;;
12334;SDS011;6233;51.560;9.986;2023-03-14T15:25:38;7.93;;;2.90;;
12334;SDS011;6233;51.560;9.986;2023-03-14T15:28:55;6.63;;;3.27;;
12334;SDS011;6233;51.560;9.986;2023-03-14T15:31:57;7.50;;;3.53;;
12334;SDS011;6233;51.560;9.986;2023-03-14T15:34:59;6.50;;;2.60;;
12334;SDS011;6233;51.560;9.986;2023-03-14T15:38:01;5.33;;;2.10;;
12334;SDS011;6233;51.560;9.986;2023-03-14T15:41:03;3.40;;;1.90;;
12334;SDS011;6233;51.560;9.986;2023-03-14T15:44:04;7.20;;;2.90;;
12334;SDS011;6233;51.560;9.986;2023-03-14T15:47:07;5.63;;;2.43;;
12334;SDS011;6233;51.560;9.986;2023-03-14T15:50:11;4.73;;;2.23;;
12334;SDS011;6233;51.560;9.986;2023-03-14T15:53:13;8.47;;;2.30;;
12334;SDS011;6233;51.560;9.986;2023-03-14T15:56:16;6.27;;;2.13;;
12334;SDS011;6233;51.560;9.986;2023-03-14T15:59:19;6.50;;;2.10;;
12334;SDS011;6233;51.560;9.986;2023-03-14T16:02:20;6.80;;;2.20;;
12334;SDS011;6233;51.560;9.986;2023-03-14T16:05:22;5.80;;;1.93;;
12334;SDS011;6233;51.560;9.986;2023-03-14T16:08:24;4.83;;;2.17;;
12334;SDS011;6233;51.560;9.986;2023-03-14T16:11:26;5.17;;;2.30;;
12334;SDS011;6233;51.560;9.986;2023-03-14T16:14:28;7.03;;;2.63;;
12334;SDS011;6233;51.560;9.986;2023-03-14T16:17:30;8.20;;;2.67;;
12334;SDS011;6233;51.560;9.986;2023-03-14T16:20:33;9.53;;;3.13;;
12334;SDS011;6233;51.560;9.986;2023-03-14T16:23:47;10.33;;;2.70;;
12334;SDS011;6233;51.560;9.986;2023-03-14T16:26:49;6.17;;;2.30;;
12334;SDS011;6233;51.560;9.986;2023-03-14T16:29:51;7.67;;;2.70;;
12334;SDS011;6233;51.560;9.986;2023-03-14T16:32:53;10.00;;;2.97;;
12334;SDS011;6233;51.560;9.986;2023-03-14T16:35:55;9.00;;;2.90;;
12334;SDS011;6233;51.560;9.986;2023-03-14T16:38:58;9.90;;;2.97;;
12334;SDS011;6233;51.560;9.986;2023-03-14T16:42:00;8.00;;;2.57;;
12334;SDS011;6233;51.560;9.986;2023-03-14T16:45:02;10.17;;;2.83;;
12334;SDS011;6233;51.560;9.986;2023-03-14T16:48:03;8.60;;;2.60;;
12334;SDS011;6233;51.560;9.986;2023-03-14T16:51:05;6.63;;;2.70;;
12334;SDS011;6233;51.560;9.986;2023-03-14T16:54:07;7.27;;;3.03;;
12334;SDS011;6233;51.560;9.986;2023-03-14T16:57:09;7.63;;;2.60;;
12334;SDS011;6233;51.560;9.986;2023-03-14T17:00:11;7.33;;;2.40;;
12334;SDS011;6233;51.560;9.986;2023-03-14T17:03:14;4.60;;;2.37;;
12334;SDS011;6233;51.560;9.986;2023-03-14T17:06:18;9.80;;;2.80;;
12334;SDS011;6233;51.560;9.986;2023-03-14T17:09:25;6.63;;;1.97;;
12334;SDS011;6233;51.560;9.986;2023-03-14T17:12:28;6.53;;;2.50;;
12334;SDS011;6233;51.560;9.986;2023-03-14T17:15:30;7.47;;;3.03;;
12334;SDS011;6233;51.560;9.986;2023-03-14T17:18:31;10.50;;;3.67;;
12334;SDS011;6233;51.560;9.986;2023-03-14T17:21:33;7.87;;;2.10;;
12334;SDS011;6233;51.560;9.986;2023-03-14T17:24:35;6.77;;;2.50;;
12334;SDS011;6233;51.560;9.986;2023-03-14T17:27:38;6.83;;;2.30;;
12334;SDS011;6233;51.560;9.986;2023-03-14T17:30:39;5.47;;;2.10;;
12334;SDS011;6233;51.560;9.986;2023-03-14T17:33:41;7.87;;;2.23;;
12334;SDS011;6233;51.560;9.986;2023-03-14T17:36:43;9.23;;;2.80;;
12334;SDS011;6233;51.560;9.986;2023-03-14T17:39:45;4.77;;;2.57;;
12334;SDS011;6233;51.560;9.986;2023-03-14T17:42:47;6.27;;;2.30;;
12334;SDS011;6233;51.560;9.986;2023-03-14T17:45:59;8.63;;;2.17;;
12334;SDS011;6233;51.560;9.986;2023-03-14T17:49:02;6.47;;;2.10;;
12334;SDS011;6233;51.560;9.986;2023-03-14T17:52:04;3.17;;;2.03;;
12334;SDS011;6233;51.560;9.986;2023-03-14T17:55:08;6.13;;;2.37;;
12334;SDS011;6233;51.560;9.986;2023-03-14T17:58:12;7.00;;;2.83;;
12334;SDS011;6233;51.560;9.986;2023-03-14T18:01:14;4.60;;;2.30;;
12334;SDS011;6233;51.560;9.986;2023-03-14T18:04:18;4.40;;;2.83;;
12334;SDS011;6233;51.560;9.986;2023-03-14T18:07:20;10.27;;;2.07;;
12334;SDS011;6233;51.560;9.986;2023-03-14T18:10:22;6.23;;;2.00;;
12334;SDS011;6233;51.560;9.986;2023-03-14T18:13:24;5.07;;;1.80;;
12334;SDS011;6233;51.560;9.986;2023-03-14T18:16:26;5.90;;;2.20;;
12334;SDS011;6233;51.560;9.986;2023-03-14T18:19:28;8.07;;;2.60;;
12334;SDS011;6233;51.560;9.986;2023-03-14T18:22:30;8.47;;;2.40;;
12334;SDS011;6233;51.560;9.986;2023-03-14T18:29:01;6.33;;;2.13;;
12334;SDS011;6233;51.560;9.986;2023-03-14T18:32:03;7.20;;;2.13;;
12334;SDS011;6233;51.560;9.986;2023-03-14T18:35:05;6.87;;;2.30;;
12334;SDS011;6233;51.560;9.986;2023-03-14T18:38:07;6.37;;;2.60;;
12334;SDS011;6233;51.560;9.986;2023-03-14T18:41:10;7.37;;;2.13;;
12334;SDS011;6233;51.560;9.986;2023-03-14T18:44:13;6.03;;;2.10;;
12334;SDS011;6233;51.560;9.986;2023-03-14T18:47:15;7.10;;;2.17;;
12334;SDS011;6233;51.560;9.986;2023-03-14T18:50:17;3.47;;;1.70;;
12334;SDS011;6233;51.560;9.986;2023-03-14T18:53:19;8.63;;;2.10;;
12334;SDS011;6233;51.560;9.986;2023-03-14T18:56:22;7.23;;;2.00;;
12334;SDS011;6233;51.560;9.986;2023-03-14T18:59:25;7.47;;;2.20;;
12334;SDS011;6233;51.560;9.986;2023-03-14T19:02:27;5.83;;;2.37;;
12334;SDS011;6233;51.560;9.986;2023-03-14T19:05:29;7.70;;;2.47;;
12334;SDS011;6233;51.560;9.986;2023-03-14T19:08:31;4.60;;;2.20;;
12334;SDS011;6233;51.560;9.986;2023-03-14T19:11:34;4.67;;;1.87;;
12334;SDS011;6233;51.560;9.986;2023-03-14T19:14:36;5.83;;;2.47;;
12334;SDS011;6233;51.560;9.986;2023-03-14T19:17:38;5.00;;;2.57;;
12334;SDS011;6233;51.560;9.986;2023-03-14T19:20:40;4.73;;;2.00;;
12334;SDS011;6233;51.560;9.986;2023-03-14T19:23:42;6.63;;;1.97;;
12334;SDS011;6233;51.560;9.986;2023-03-14T19:26:49;6.77;;;2.53;;
12334;SDS011;6233;51.560;9.986;2023-03-14T19:29:51;5.23;;;2.50;;
12334;SDS011;6233;51.560;9.986;2023-03-14T19:32:53;7.50;;;2.60;;
12334;SDS011;6233;51.560;9.986;2023-03-14T19:35:54;5.77;;;2.67;;
12334;SDS011;6233;51.560;9.986;2023-03-14T19:38:57;15.03;;;3.40;;
12334;SDS011;6233;51.560;9.986;2023-03-14T19:42:01;17.23;;;7.87;;
12334;SDS011;6233;51.560;9.986;2023-03-14T19:45:03;8.03;;;4.00;;
12334;SDS011;6233;51.560;9.986;2023-03-14T19:48:06;5.67;;;2.30;;
12334;SDS011;6233;51.560;9.986;2023-03-14T19:51:07;6.57;;;2.17;;
12334;SDS011;6233;51.560;9.986;2023-03-14T19:54:09;6.03;;;2.23;;
12334;SDS011;6233;51.560;9.986;2023-03-14T19:57:11;7.93;;;2.03;;
12334;SDS011;6233;51.560;9.986;2023-03-14T20:00:13;6.83;;;2.03;;
12334;SDS011;6233;51.560;9.986;2023-03-14T20:03:19;6.50;;;2.70;;